Upper Freehold, New Jersey
Current Conditions -  °F | °C
As of 7:58 PM on Tuesday 27 Jan 2015 (Local Time) from KWRI Reporting Station
Clear Clear  
Wind Chill: 14°   Ceiling: Unl
Heat Index: 27°   Visibility: 10mi
Dew Point: 11°   Wind: 16mph
Humidity: 51%   Direction: 320°NW
Pressure: 29.76"   Gusts: NA
Location:  40.1432°N, 74.5751°W
Report Text: KWRI 280058Z AUTO 32014KT 10SM CLR M03/M12 A2976 RMK AO2 SLP083 T10291117 $
Loading
Personal Weather Stations






























Interactive Weather Map New forecast layout! Learn more

10-Day Weather Forecast

Advertisements
Track Severe Weather on mobile